Buford, Texas
Current Conditions -  °F | °C
As of 8:55 AM on Thursday 23 Oct 2014 (Local Time) from KSNK Reporting Station
Haze Haze  
Wind Chill: 58°   Ceiling: 300
Heat Index: 58°   Visibility: 3mi
Dew Point: 57°   Wind: 7mph
Humidity: 96%   Direction: 200°SSW
Pressure: 30.16"   Gusts: NA
Location:  32.4169°N, 100.857°W
Report Text: KSNK 231355Z AUTO 20006KT 3SM BR OVC003 15/14 A3016 RMK AO2 T01450138
Loading
Personal Weather Stations






























Interactive Weather Map
Tropical Storm Tracking
New forecast layout! Learn more

10-Day Weather Forecast

Advertisements
Track Severe Weather on mobile